Wetterdaten: Woche 16.09.02 - 22.09.02 (KW38)
Datum Zeit Temperatur Luftfeuchte Luftdruck Regenmenge Wind Richtung Taupunkt Windchill
16.09.2002 00:00 8.6 C 93 % 1018.0 hPa 0.0 l/m 0.0 km/h (0 Bft) N 7.6 C 8.6 C
16.09.2002 01:00 7.6 C 94 % 1018.0 hPa 0.0 l/m 0.0 km/h (0 Bft) N 6.7 C 7.6 C
16.09.2002 02:00 6.7 C 97 % 1018.0 hPa 0.0 l/m 0.0 km/h (0 Bft) N 6.3 C 6.7 C
16.09.2002 03:00 5.9 C 99 % 1017.0 hPa 0.0 l/m 0.0 km/h (0 Bft) N 5.8 C 5.9 C
16.09.2002 04:00 5.6 C 100 % 1017.0 hPa 0.0 l/m 0.0 km/h (0 Bft) N 5.6 C 5.6 C
16.09.2002 05:00 5.2 C 100 % 1017.0 hPa 0.0 l/m 0.0 km/h (0 Bft) N 5.2 C 5.2 C
16.09.2002 06:00 4.6 C 100 % 1017.0 hPa 0.0 l/m 0.0 km/h (0 Bft) N 4.6 C 4.6 C
16.09.2002 07:00 4.6 C 100 % 1017.8 hPa 0.0 l/m 0.0 km/h (0 Bft) N 4.6 C 4.6 C
16.09.2002 08:00 5.8 C 99 % 1018.0 hPa 0.0 l/m 0.0 km/h (0 Bft) N 5.6 C 5.8 C
16.09.2002 09:00 8.4 C 89 % 1018.0 hPa 0.0 l/m 0.0 km/h (0 Bft) N 6.7 C 8.4 C
16.09.2002 10:00 11.4 C 74 % 1018.0 hPa 0.0 l/m 0.0 km/h (0 Bft) O-SO 6.8 C 11.4 C
16.09.2002 11:00 14.5 C 62 % 1017.6 hPa 0.0 l/m 6.3 km/h (2 Bft) O-SO 7.4 C 14.5 C
16.09.2002 12:00 16.9 C 53 % 1017.0 hPa 0.0 l/m 16.5 km/h (3 Bft) O-SO 7.3 C 16.9 C
16.09.2002 13:00 17.8 C 47 % 1016.8 hPa 0.0 l/m 10.4 km/h (2 Bft) O 6.4 C 17.8 C
16.09.2002 14:00 19.0 C 43 % 1016.2 hPa 0.0 l/m 7.8 km/h (2 Bft) O-SO 6.0 C 19.0 C
16.09.2002 15:00 19.7 C 42 % 1015.9 hPa 0.0 l/m 7.0 km/h (2 Bft) O-SO 6.5 C 19.7 C
16.09.2002 16:00 19.5 C 46 % 1015.9 hPa 0.0 l/m 14.0 km/h (3 Bft) O-SO 7.6 C 19.5 C
16.09.2002 17:00 19.0 C 47 % 1015.9 hPa 0.0 l/m 14.1 km/h (3 Bft) O-SO 7.3 C 19.0 C
16.09.2002 18:00 17.5 C 49 % 1015.9 hPa 0.0 l/m 9.6 km/h (2 Bft) O-SO 6.5 C 17.5 C
16.09.2002 19:00 15.2 C 59 % 1015.9 hPa 0.0 l/m 3.4 km/h (1 Bft) O-SO 7.1 C 15.2 C
16.09.2002 20:00 13.3 C 72 % 1015.9 hPa 0.0 l/m 1.7 km/h (1 Bft) O-SO 8.4 C 13.3 C
16.09.2002 21:00 11.4 C 79 % 1016.8 hPa 0.0 l/m 0.8 km/h (0 Bft) O-SO 7.9 C 11.4 C
16.09.2002 22:00 9.8 C 87 % 1016.1 hPa 0.0 l/m 1.0 km/h (0 Bft) O-SO 7.8 C 9.8 C
16.09.2002 23:00 8.7 C 92 % 1016.2 hPa 0.0 l/m 1.1 km/h (1 Bft) O-SO 7.4 C 8.6 C
17.09.2002 00:00 8.1 C 96 % 1015.9 hPa 0.0 l/m 0.0 km/h (0 Bft) N 7.4 C 8.1 C
17.09.2002 01:00 7.2 C 99 % 1015.9 hPa 0.0 l/m 0.0 km/h (0 Bft) N 7.0 C 7.2 C
17.09.2002 02:00 6.5 C 100 % 1016.1 hPa 0.0 l/m 0.0 km/h (0 Bft) N 6.4 C 6.5 C
17.09.2002 03:00 5.9 C 100 % 1015.9 hPa 0.0 l/m 0.0 km/h (0 Bft) N 5.9 C 5.9 C
17.09.2002 04:00 5.2 C 100 % 1015.9 hPa 0.0 l/m 0.0 km/h (0 Bft) N 5.2 C 5.2 C
17.09.2002 05:00 4.4 C 100 % 1016.5 hPa 0.0 l/m 0.4 km/h (0 Bft) O-SO 4.4 C 4.4 C
17.09.2002 06:00 4.2 C 100 % 1015.9 hPa 0.0 l/m 0.1 km/h (0 Bft) N 4.1 C 4.2 C
17.09.2002 07:00 3.9 C 100 % 1016.8 hPa 0.0 l/m 0.7 km/h (0 Bft) O-SO 3.9 C 3.9 C
17.09.2002 08:00 5.6 C 100 % 1017.0 hPa 0.0 l/m 0.0 km/h (0 Bft) N 5.5 C 5.6 C
17.09.2002 09:00 8.1 C 90 % 1017.0 hPa 0.0 l/m 0.0 km/h (0 Bft) N 6.6 C 8.1 C
17.09.2002 10:00 11.0 C 77 % 1017.0 hPa 0.0 l/m 0.2 km/h (0 Bft) N 7.1 C 11.0 C
17.09.2002 11:00 13.8 C 66 % 1017.0 hPa 0.0 l/m 4.0 km/h (1 Bft) W-NW 7.5 C 13.8 C
17.09.2002 12:00 16.4 C 58 % 1016.4 hPa 0.0 l/m 6.2 km/h (2 Bft) W-NW 8.1 C 16.4 C
17.09.2002 13:00 18.0 C 51 % 1015.9 hPa 0.0 l/m 2.8 km/h (1 Bft) W-NW 7.8 C 18.0 C
17.09.2002 14:00 19.4 C 48 % 1015.9 hPa 0.0 l/m 2.2 km/h (1 Bft) W-NW 8.1 C 19.4 C
17.09.2002 15:00 20.4 C 49 % 1015.3 hPa 0.0 l/m 0.9 km/h (0 Bft) N-NW 9.3 C 20.4 C
17.09.2002 16:00 21.0 C 49 % 1014.9 hPa 0.0 l/m 0.8 km/h (0 Bft) SO 9.8 C 21.0 C
17.09.2002 17:00 21.1 C 52 % 1014.9 hPa 0.0 l/m 0.8 km/h (0 Bft) O-SO 10.9 C 21.1 C
17.09.2002 18:00 19.9 C 59 % 1014.7 hPa 0.0 l/m 0.3 km/h (0 Bft) N 11.8 C 19.9 C
17.09.2002 19:00 17.4 C 66 % 1014.9 hPa 0.0 l/m 4.2 km/h (1 Bft) O-SO 10.9 C 17.4 C
17.09.2002 20:00 14.0 C 76 % 1014.9 hPa 0.0 l/m 0.4 km/h (0 Bft) O-SO 9.9 C 14.0 C
17.09.2002 21:00 12.4 C 84 % 1015.7 hPa 0.0 l/m 0.0 km/h (0 Bft) N 9.7 C 12.4 C
17.09.2002 22:00 10.8 C 90 % 1015.9 hPa 0.0 l/m 0.9 km/h (0 Bft) O-SO 9.3 C 10.8 C
17.09.2002 23:00 9.9 C 96 % 1015.9 hPa 0.0 l/m 0.4 km/h (0 Bft) O-SO 9.3 C 9.9 C
18.09.2002 00:00 9.1 C 98 % 1015.9 hPa 0.0 l/m 0.0 km/h (0 Bft) N 8.8 C 9.1 C
18.09.2002 01:00 8.3 C 99 % 1015.9 hPa 0.0 l/m 1.1 km/h (0 Bft) O-SO 8.2 C 8.3 C
18.09.2002 02:00 7.6 C 99 % 1015.9 hPa 0.0 l/m 0.7 km/h (0 Bft) O 7.4 C 7.6 C
18.09.2002 03:00 7.0 C 100 % 1015.5 hPa 0.0 l/m 0.0 km/h (0 Bft) N 7.0 C 7.0 C
18.09.2002 04:00 6.4 C 100 % 1015.2 hPa 0.0 l/m 0.0 km/h (0 Bft) N 6.4 C 6.4 C
18.09.2002 05:00 6.2 C 100 % 1014.9 hPa 0.0 l/m 0.0 km/h (0 Bft) N 6.2 C 6.2 C
18.09.2002 06:00 6.0 C 100 % 1015.4 hPa 0.0 l/m 0.0 km/h (0 Bft) N 6.0 C 6.0 C
18.09.2002 07:00 5.8 C 100 % 1015.9 hPa 0.0 l/m 0.0 km/h (0 Bft) N 5.8 C 5.8 C
18.09.2002 08:00 7.5 C 99 % 1015.9 hPa 0.0 l/m 0.0 km/h (0 Bft) N 7.4 C 7.5 C
18.09.2002 09:00 9.3 C 93 % 1016.7 hPa 0.0 l/m 0.0 km/h (0 Bft) N 8.3 C 9.3 C
18.09.2002 10:00 12.0 C 85 % 1016.6 hPa 0.0 l/m 0.4 km/h (0 Bft) O-SO 9.5 C 12.0 C
18.09.2002 11:00 15.6 C 75 % 1015.9 hPa 0.0 l/m 5.1 km/h (1 Bft) O-SO 11.2 C 15.6 C
18.09.2002 12:00 18.1 C 66 % 1015.7 hPa 0.0 l/m 3.5 km/h (1 Bft) O-SO 11.6 C 18.1 C
18.09.2002 13:00 20.8 C 59 % 1014.8 hPa 0.0 l/m 5.0 km/h (1 Bft) O-SO 12.4 C 20.8 C
18.09.2002 14:00 23.2 C 49 % 1013.9 hPa 0.0 l/m 5.0 km/h (1 Bft) O-SO 12.0 C 23.2 C
18.09.2002 15:00 24.6 C 47 % 1013.5 hPa 0.0 l/m 4.8 km/h (1 Bft) O-SO 12.6 C 24.6 C
18.09.2002 16:00 25.1 C 50 % 1012.8 hPa 0.0 l/m 3.5 km/h (1 Bft) O-SO 13.8 C 25.1 C
18.09.2002 17:00 24.3 C 52 % 1012.8 hPa 0.0 l/m 1.1 km/h (0 Bft) W-NW 13.7 C 24.3 C
18.09.2002 18:00 22.9 C 57 % 1012.8 hPa 0.0 l/m 0.1 km/h (0 Bft) O-SO 14.0 C 22.9 C
18.09.2002 19:00 19.2 C 70 % 1012.8 hPa 0.0 l/m 6.4 km/h (2 Bft) O-SO 13.5 C 19.2 C
18.09.2002 20:00 16.7 C 81 % 1013.0 hPa 0.0 l/m 5.3 km/h (1 Bft) O-SO 13.4 C 16.7 C
18.09.2002 21:00 15.4 C 87 % 1013.9 hPa 0.0 l/m 0.5 km/h (0 Bft) O-SO 13.3 C 15.4 C
18.09.2002 22:00 14.9 C 89 % 1013.8 hPa 0.0 l/m 1.2 km/h (1 Bft) O-SO 13.1 C 14.9 C
18.09.2002 23:00 14.9 C 90 % 1013.9 hPa 0.0 l/m 0.0 km/h (0 Bft) N 13.4 C 14.9 C
19.09.2002 00:00 15.0 C 90 % 1013.9 hPa 0.0 l/m 0.1 km/h (0 Bft) O-SO 13.4 C 15.0 C
19.09.2002 01:00 14.7 C 92 % 1013.9 hPa 0.0 l/m 0.4 km/h (0 Bft) O-SO 13.3 C 14.7 C
19.09.2002 02:00 14.0 C 95 % 1013.9 hPa 0.0 l/m 1.7 km/h (1 Bft) O-SO 13.2 C 14.0 C
19.09.2002 03:00 14.2 C 94 % 1013.9 hPa 0.0 l/m 1.0 km/h (0 Bft) O-SO 13.2 C 14.2 C
19.09.2002 04:00 14.3 C 94 % 1013.9 hPa 0.0 l/m 0.0 km/h (0 Bft) N 13.4 C 14.3 C
19.09.2002 05:00 14.2 C 96 % 1013.9 hPa 0.3 l/m 0.5 km/h (0 Bft) O-SO 13.7 C 14.2 C
19.09.2002 06:00 14.1 C 99 % 1013.9 hPa 0.0 l/m 0.0 km/h (0 Bft) N 13.9 C 14.1 C
19.09.2002 07:00 14.2 C 100 % 1013.9 hPa 0.3 l/m 0.0 km/h (0 Bft) N 14.2 C 14.2 C
19.09.2002 08:00 14.4 C 100 % 1013.9 hPa 0.6 l/m 0.0 km/h (0 Bft) N 14.4 C 14.4 C
19.09.2002 09:00 14.9 C 100 % 1014.8 hPa 0.0 l/m 0.7 km/h (0 Bft) O-SO 14.9 C 14.9 C
19.09.2002 10:00 15.7 C 100 % 1015.5 hPa 0.0 l/m 0.0 km/h (0 Bft) N 15.7 C 15.7 C
19.09.2002 11:00 16.5 C 98 % 1015.9 hPa 0.0 l/m 1.2 km/h (1 Bft) O-SO 16.2 C 16.5 C
19.09.2002 12:00 17.2 C 95 % 1015.9 hPa 0.3 l/m 1.7 km/h (1 Bft) O-SO 16.5 C 17.2 C
19.09.2002 13:00 17.4 C 96 % 1015.9 hPa 0.3 l/m 0.5 km/h (0 Bft) O-SO 16.7 C 17.4 C
19.09.2002 14:00 17.8 C 94 % 1015.9 hPa 0.0 l/m 0.1 km/h (0 Bft) W-NW 16.9 C 17.8 C
19.09.2002 15:00 18.1 C 94 % 1015.9 hPa 0.0 l/m 0.4 km/h (0 Bft) N-NO 17.1 C 18.1 C
19.09.2002 16:00 18.4 C 91 % 1015.9 hPa 0.0 l/m 1.6 km/h (1 Bft) O-SO 16.9 C 18.4 C
19.09.2002 17:00 18.1 C 92 % 1015.5 hPa 0.3 l/m 3.1 km/h (1 Bft) O-SO 16.7 C 18.1 C
19.09.2002 18:00 17.7 C 94 % 1015.5 hPa 0.0 l/m 2.7 km/h (1 Bft) SO 16.6 C 17.7 C
19.09.2002 19:00 17.1 C 94 % 1015.9 hPa 0.0 l/m 6.7 km/h (2 Bft) O-SO 16.1 C 17.1 C
19.09.2002 20:00 16.5 C 96 % 1015.9 hPa 0.0 l/m 3.8 km/h (1 Bft) O-SO 15.8 C 16.5 C
19.09.2002 21:00 16.4 C 97 % 1015.9 hPa 0.3 l/m 1.6 km/h (1 Bft) O-SO 15.9 C 16.4 C
19.09.2002 22:00 16.2 C 99 % 1016.2 hPa 2.1 l/m 2.0 km/h (1 Bft) O-SO 16.1 C 16.2 C
19.09.2002 23:00 15.8 C 100 % 1015.9 hPa 0.3 l/m 1.0 km/h (0 Bft) O-SO 15.8 C 15.8 C
20.09.2002 00:00 15.6 C 100 % 1016.7 hPa 0.0 l/m 3.3 km/h (1 Bft) O-SO 15.6 C 15.6 C
20.09.2002 01:00 15.7 C 100 % 1016.8 hPa 0.0 l/m 0.0 km/h (0 Bft) N 15.7 C 15.7 C
20.09.2002 02:00 15.6 C 100 % 1016.1 hPa 0.0 l/m 0.1 km/h (0 Bft) N 15.6 C 15.6 C
20.09.2002 03:00 15.8 C 100 % 1016.4 hPa 0.0 l/m 1.1 km/h (1 Bft) SO 15.8 C 15.8 C
20.09.2002 04:00 15.5 C 100 % 1015.9 hPa 0.9 l/m 1.3 km/h (1 Bft) O-SO 15.5 C 15.5 C
20.09.2002 05:00 15.6 C 100 % 1015.9 hPa 0.0 l/m 0.2 km/h (0 Bft) O-SO 15.6 C 15.6 C
20.09.2002 06:00 15.5 C 100 % 1015.9 hPa 0.0 l/m 0.0 km/h (0 Bft) N 15.5 C 15.5 C
20.09.2002 07:00 15.5 C 100 % 1016.7 hPa 0.0 l/m 1.7 km/h (1 Bft) O-SO 15.5 C 15.5 C
20.09.2002 08:00 15.8 C 100 % 1017.0 hPa 0.0 l/m 2.6 km/h (1 Bft) O-SO 15.8 C 15.8 C
20.09.2002 09:00 16.2 C 100 % 1017.2 hPa 0.0 l/m 0.1 km/h (0 Bft) W-NW 16.2 C 16.2 C
20.09.2002 10:00 17.4 C 100 % 1017.6 hPa 0.0 l/m 0.3 km/h (0 Bft) W 17.4 C 17.4 C
20.09.2002 11:00 18.6 C 88 % 1017.0 hPa 0.0 l/m 6.9 km/h (2 Bft) W-NW 16.5 C 18.6 C
20.09.2002 12:00 20.1 C 75 % 1017.0 hPa 0.0 l/m 8.7 km/h (2 Bft) NW 15.6 C 20.1 C
20.09.2002 13:00 20.8 C 71 % 1016.0 hPa 0.0 l/m 16.6 km/h (3 Bft) NW 15.3 C 20.8 C
20.09.2002 14:00 21.2 C 69 % 1015.9 hPa 0.0 l/m 11.8 km/h (2 Bft) NW 15.2 C 21.2 C
20.09.2002 15:00 22.2 C 62 % 1015.9 hPa 0.0 l/m 15.6 km/h (3 Bft) NW 14.4 C 22.2 C
20.09.2002 16:00 22.6 C 56 % 1015.8 hPa 0.0 l/m 13.8 km/h (3 Bft) NW 13.3 C 22.6 C
20.09.2002 17:00 21.0 C 62 % 1015.9 hPa 0.0 l/m 9.3 km/h (2 Bft) NW 13.4 C 21.0 C
20.09.2002 18:00 21.1 C 64 % 1015.9 hPa 0.0 l/m 6.3 km/h (2 Bft) W-NW 13.9 C 21.1 C
20.09.2002 19:00 18.9 C 77 % 1016.4 hPa 0.0 l/m 0.0 km/h (0 Bft) N 14.8 C 18.9 C
20.09.2002 20:00 18.2 C 82 % 1017.0 hPa 0.0 l/m 0.5 km/h (0 Bft) O 15.1 C 18.2 C
20.09.2002 21:00 17.3 C 85 % 1017.0 hPa 0.0 l/m 0.1 km/h (0 Bft) N 14.8 C 17.3 C
20.09.2002 22:00 16.8 C 81 % 1017.0 hPa 0.0 l/m 3.5 km/h (1 Bft) O-SO 13.5 C 16.8 C
20.09.2002 23:00 16.7 C 78 % 1017.4 hPa 0.0 l/m 2.5 km/h (1 Bft) O-SO 12.7 C 16.7 C
21.09.2002 00:00 16.4 C 79 % 1017.4 hPa 0.0 l/m 0.0 km/h (0 Bft) N 12.7 C 16.4 C
21.09.2002 01:00 15.8 C 83 % 1017.0 hPa 0.0 l/m 0.0 km/h (0 Bft) N 12.9 C 15.8 C
21.09.2002 02:00 15.5 C 87 % 1017.0 hPa 0.0 l/m 0.0 km/h (0 Bft) N 13.4 C 15.5 C
21.09.2002 03:00 15.1 C 89 % 1016.2 hPa 0.0 l/m 0.0 km/h (0 Bft) N 13.3 C 15.1 C
21.09.2002 04:00 14.8 C 91 % 1015.9 hPa 0.0 l/m 0.0 km/h (0 Bft) N 13.4 C 14.8 C
21.09.2002 05:00 14.1 C 94 % 1015.9 hPa 0.0 l/m 0.0 km/h (0 Bft) N 13.2 C 14.1 C
21.09.2002 06:00 14.3 C 95 % 1015.9 hPa 0.0 l/m 0.0 km/h (0 Bft) N 13.4 C 14.3 C
21.09.2002 07:00 14.1 C 94 % 1015.9 hPa 0.0 l/m 0.1 km/h (0 Bft) N 13.1 C 14.1 C
21.09.2002 08:00 14.3 C 92 % 1015.9 hPa 0.0 l/m 0.0 km/h (0 Bft) N 13.0 C 14.3 C
21.09.2002 09:00 14.8 C 88 % 1015.9 hPa 0.0 l/m 0.0 km/h (0 Bft) N 12.9 C 14.8 C
21.09.2002 10:00 15.9 C 80 % 1015.9 hPa 0.0 l/m 0.1 km/h (0 Bft) N 12.4 C 15.9 C
21.09.2002 11:00 17.3 C 72 % 1015.2 hPa 0.0 l/m 6.0 km/h (2 Bft) O-SO 12.3 C 17.3 C
21.09.2002 12:00 19.1 C 65 % 1014.5 hPa 0.0 l/m 10.1 km/h (2 Bft) O-SO 12.3 C 19.1 C
21.09.2002 13:00 18.5 C 66 % 1013.9 hPa 0.0 l/m 5.7 km/h (1 Bft) O-SO 12.1 C 18.5 C
21.09.2002 14:00 19.3 C 64 % 1013.3 hPa 0.0 l/m 10.0 km/h (2 Bft) O-SO 12.2 C 19.3 C
21.09.2002 15:00 20.5 C 58 % 1012.3 hPa 0.0 l/m 5.6 km/h (1 Bft) O-SO 12.1 C 20.5 C
21.09.2002 16:00 20.2 C 59 % 1011.8 hPa 0.0 l/m 4.3 km/h (1 Bft) O-SO 12.0 C 20.2 C
21.09.2002 17:00 18.8 C 66 % 1011.0 hPa 0.0 l/m 3.1 km/h (1 Bft) O-SO 12.3 C 18.8 C
21.09.2002 18:00 18.1 C 70 % 1010.8 hPa 0.0 l/m 1.1 km/h (0 Bft) O-SO 12.4 C 18.1 C
21.09.2002 19:00 17.4 C 71 % 1010.8 hPa 0.0 l/m 0.7 km/h (0 Bft) N-NO 12.0 C 17.4 C
21.09.2002 20:00 16.4 C 73 % 1010.8 hPa 0.0 l/m 0.4 km/h (0 Bft) NO 11.5 C 16.4 C
21.09.2002 21:00 15.9 C 75 % 1010.8 hPa 0.0 l/m 0.2 km/h (0 Bft) N 11.4 C 15.9 C
21.09.2002 22:00 15.5 C 78 % 1010.8 hPa 0.0 l/m 0.1 km/h (0 Bft) N 11.6 C 15.5 C
21.09.2002 23:00 15.2 C 79 % 1010.8 hPa 0.0 l/m 0.1 km/h (0 Bft) N 11.6 C 15.2 C
22.09.2002 00:00 14.1 C 90 % 1010.8 hPa 0.3 l/m 0.1 km/h (0 Bft) N 12.5 C 14.1 C
22.09.2002 01:00 13.2 C 94 % 1010.8 hPa 0.0 l/m 0.0 km/h (0 Bft) N 12.3 C 13.2 C
22.09.2002 02:00 12.7 C 90 % 1010.7 hPa 0.0 l/m 0.6 km/h (0 Bft) NW 11.2 C 12.7 C
22.09.2002 03:00 11.8 C 95 % 1009.8 hPa 0.9 l/m 0.2 km/h (0 Bft) N 11.1 C 11.8 C
22.09.2002 04:00 11.4 C 98 % 1009.7 hPa 0.0 l/m 0.0 km/h (0 Bft) N 11.2 C 11.4 C
22.09.2002 05:00 11.3 C 99 % 1009.7 hPa 0.0 l/m 0.0 km/h (0 Bft) N 11.1 C 11.3 C
22.09.2002 06:00 11.2 C 96 % 1009.7 hPa 0.0 l/m 0.2 km/h (0 Bft) N 10.7 C 11.2 C
22.09.2002 07:00 11.2 C 96 % 1009.7 hPa 0.0 l/m 0.0 km/h (0 Bft) N 10.5 C 11.2 C
22.09.2002 08:00 11.4 C 94 % 1009.7 hPa 0.0 l/m 0.1 km/h (0 Bft) N 10.5 C 11.4 C
22.09.2002 09:00 11.9 C 91 % 1009.7 hPa 0.0 l/m 0.3 km/h (0 Bft) W-NW 10.5 C 11.9 C
22.09.2002 10:00 12.7 C 87 % 1010.7 hPa 0.0 l/m 0.1 km/h (0 Bft) N 10.5 C 12.7 C
22.09.2002 11:00 13.3 C 81 % 1010.7 hPa 0.0 l/m 1.5 km/h (1 Bft) W-NW 10.1 C 13.3 C
22.09.2002 12:00 14.4 C 74 % 1009.7 hPa 0.0 l/m 2.8 km/h (1 Bft) W-NW 9.8 C 14.4 C
22.09.2002 13:00 15.4 C 67 % 1009.7 hPa 0.0 l/m 0.4 km/h (0 Bft) N-NW 9.3 C 15.4 C
22.09.2002 14:00 14.5 C 70 % 1008.7 hPa 0.0 l/m 10.8 km/h (2 Bft) NW 9.1 C 14.5 C
22.09.2002 15:00 14.9 C 68 % 1008.4 hPa 0.0 l/m 1.2 km/h (1 Bft) W-NW 9.0 C 14.9 C
22.09.2002 16:00 17.8 C 52 % 1007.7 hPa 0.0 l/m 6.8 km/h (2 Bft) W-NW 7.6 C 17.8 C
22.09.2002 17:00 17.7 C 48 % 1006.7 hPa 0.0 l/m 10.5 km/h (2 Bft) W-NW 6.5 C 17.7 C
22.09.2002 18:00 15.4 C 56 % 1006.6 hPa 0.0 l/m 13.5 km/h (3 Bft) NW 6.6 C 15.4 C
22.09.2002 19:00 14.1 C 61 % 1007.0 hPa 0.0 l/m 6.2 km/h (2 Bft) W 6.8 C 14.1 C
22.09.2002 20:00 12.6 C 78 % 1007.7 hPa 0.0 l/m 4.8 km/h (1 Bft) SO 8.8 C 12.6 C
22.09.2002 21:00 11.5 C 90 % 1007.2 hPa 0.0 l/m 5.7 km/h (1 Bft) O-SO 9.8 C 11.5 C
22.09.2002 22:00 11.3 C 88 % 1007.0 hPa 0.3 l/m 3.9 km/h (1 Bft) NW 9.3 C 11.3 C
22.09.2002 23:00 10.2 C 90 % 1007.3 hPa 1.8 l/m 0.0 km/h (0 Bft) N 8.6 C 10.2 C
Min-Datum _ 17.09.02 16.09.02 22.09.02 - 16.09.02 - 17.09.02 17.09.02
_ Min-Zeit 07:17 15:23 17:03 - 00:05 - 07:17 07:17
Minimum _ 3.8 C 40 % 1006.6 hPa - 0.0 km/h (0 Bft) - 3.8 C 3.8 C
Max-Datum _ 18.09.02 16.09.02 16.09.02 19.09.02 20.09.02 - 20.09.02 18.09.02
_ Max-Zeit 16:14 03:50 00:05 22:30 15:58 - 10:49 16:14
Maximum _ 25.3 C 100 % 1018.0 hPa 2.1 l/m 36.8 km/h
NW (5 Bft)
- 17.9 C 25.3 C
Durchschnitt _ 14.5 C 82 % 1014.6 hPa #9.0 l/m 2.5 km/h (1 Bft) O-SO 11.0 C 14.5 C

Durchschnitt Minimum Temp.13.7 C
Durchschnitt Maximum Temp.15.2 C
© Kaiko 2002